PWSweather.com
Personal Weather Stations
Station Observations
CAMPIGIANO
Campi Bisenzio, FirenzeIT

Campi BisenzioFirenzeIT

Lat: 43.8175012, Lon: 11.1391085

Elevation: 106

Station Type: LaCrosse WS2350

Latest ConditionsUpdated 4:30:03 PM GMT+01:01 Saturday, Feb 25, 2017
Currently Today's Max Today's Min Today's Average
Temperature 54.7°F12.6°C 56.1°F13.4°C 46.2°F7.9°C 51.0°F10.6°C
Dew Point 32.6°F0.3°C 49.0°F9.4°C 32.6°F0.3°C 39.6°F4.2°C
Winds 1.2 mph ESE1.9 kmh ESE 11.5 mph N18.5 kmh N - 2.1 mph 3.4 kmh
Wind Gusts 1.2 mph1.9 kmh 11.5 mph18.5 kmh - -
Humidity 43% 91% 43% 66%
Pressure 30.00 in1015.9 mb 30.03 in1016.9 mb 29.73 in1006.8 mb -
Precipitation - 0.26 in6.6 mm - -
Hour Temp Dew Point Humidity Winds Wind Gusts Pressure Precip Precip Rate Daily Precip Total
04:30 PM 54.7°F12.6°C 32.6°F0.3°C 43% 1.2 mph ESE1.9 kmh ESE 1.2 mph1.9 kmh 30.00 in1015.9 mb - 0.00 in0.0 mm 0.26 in6.6 mm
04:00 PM 55.2°F12.9°C 34.2°F1.2°C 45% 4.6 mph NE7.4 kmh NE 5.8 mph9.3 kmh 30.00 in1015.9 mb - 0.00 in0.0 mm 0.26 in6.6 mm
03:30 PM 55.6°F13.1°C 34.6°F1.4°C 45% 4.6 mph NNE7.4 kmh NNE 5.8 mph9.3 kmh 30.00 in1015.9 mb - 0.00 in0.0 mm 0.26 in6.6 mm
03:00 PM 55.6°F13.1°C 35.6°F2.0°C 47% 2.3 mph SSW3.7 kmh SSW 2.3 mph3.7 kmh 30.00 in1015.9 mb - 0.00 in0.0 mm 0.26 in6.6 mm
02:30 PM 55.5°F13.1°C 37.6°F3.1°C 51% 4.6 mph NE7.4 kmh NE 5.8 mph9.3 kmh 30.00 in1015.9 mb - 0.00 in0.0 mm 0.26 in6.6 mm
02:00 PM 55.4°F13.0°C 37.6°F3.1°C 51% 4.6 mph 7.4 kmh 5.8 mph9.3 kmh 30.01 in1016.3 mb - 0.00 in0.0 mm 0.26 in6.6 mm
01:30 PM 56.1°F13.4°C 38.7°F3.7°C 52% 1.2 mph NNE1.9 kmh NNE 1.2 mph1.9 kmh 30.01 in1016.3 mb - 0.00 in0.0 mm 0.26 in6.6 mm
01:00 PM 56.1°F13.4°C 38.2°F3.4°C 51% Calm Calm -- 30.01 in1016.3 mb - 0.00 in0.0 mm 0.26 in6.6 mm
12:30 PM 55.5°F13.1°C 38.1°F3.4°C 52% 9.2 mph ENE14.8 kmh ENE 10.4 mph16.7 kmh 30.02 in1016.6 mb - 0.00 in0.0 mm 0.26 in6.6 mm
12:00 PM 54.9°F12.7°C 38.1°F3.4°C 53% 3.5 mph NE5.6 kmh NE 4.6 mph7.4 kmh 30.03 in1016.9 mb - 0.00 in0.0 mm 0.26 in6.6 mm
11:30 AM 54.8°F12.7°C 39.8°F4.3°C 57% Calm Calm -- 30.03 in1016.9 mb - 0.00 in0.0 mm 0.26 in6.6 mm
11:00 AM 53.7°F12.1°C 39.2°F4.0°C 58% 3.5 mph NNE5.6 kmh NNE 5.8 mph9.3 kmh 30.02 in1016.6 mb - 0.00 in0.0 mm 0.26 in6.6 mm
10:30 AM 53.3°F11.8°C 39.7°F4.3°C 60% 1.2 mph NE1.9 kmh NE 4.6 mph7.4 kmh 30.01 in1016.3 mb - 0.00 in0.0 mm 0.26 in6.6 mm
10:00 AM 52.9°F11.6°C 39.8°F4.3°C 61% 3.5 mph S5.6 kmh S 4.6 mph7.4 kmh 30.00 in1015.9 mb - 0.00 in0.0 mm 0.26 in6.6 mm
09:30 AM 52.5°F11.4°C 39.9°F4.4°C 62% Calm Calm 2.3 mph3.7 kmh 29.98 in1015.2 mb - 0.00 in0.0 mm 0.26 in6.6 mm
09:00 AM 49.8°F9.9°C 38.5°F3.6°C 65% 3.5 mph NNE5.6 kmh NNE 3.5 mph5.6 kmh 29.96 in1014.6 mb - 0.00 in0.0 mm 0.26 in6.6 mm
08:30 AM 49.2°F9.6°C 38.3°F3.5°C 66% Calm Calm -- 29.95 in1014.2 mb - 0.00 in0.0 mm 0.26 in6.6 mm
08:00 AM 49.3°F9.6°C 38.8°F3.8°C 67% 4.6 mph N7.4 kmh N 5.8 mph9.3 kmh 29.95 in1014.2 mb - 0.00 in0.0 mm 0.26 in6.6 mm
07:30 AM 48.7°F9.3°C 39.4°F4.1°C 70% Calm Calm -- 29.93 in1013.5 mb - 0.00 in0.0 mm 0.26 in6.6 mm
07:00 AM 48.4°F9.1°C 39.4°F4.1°C 71% Calm Calm -- 29.92 in1013.2 mb - 0.00 in0.0 mm 0.26 in6.6 mm
06:30 AM 48.1°F8.9°C 39.5°F4.2°C 72% Calm Calm -- 29.90 in1012.5 mb - 0.00 in0.0 mm 0.26 in6.6 mm
06:00 AM 47.3°F8.5°C 39.4°F4.1°C 74% Calm Calm -- 29.89 in1012.2 mb - 0.00 in0.0 mm 0.26 in6.6 mm
05:30 AM 47.3°F8.5°C 38.8°F3.8°C 72% Calm Calm -- 29.89 in1012.2 mb - 0.00 in0.0 mm 0.26 in6.6 mm
05:00 AM 47.1°F8.4°C 39.3°F4.1°C 74% Calm Calm -- 29.88 in1011.9 mb - 0.00 in0.0 mm 0.26 in6.6 mm
04:30 AM 47.1°F8.4°C 39.3°F4.1°C 74% 1.2 mph NNE1.9 kmh NNE 2.3 mph3.7 kmh 29.87 in1011.5 mb - 0.00 in0.0 mm 0.26 in6.6 mm
04:01 AM 46.5°F8.1°C 40.0°F4.4°C 78% Calm Calm -- 29.86 in1011.2 mb - 0.00 in0.0 mm 0.26 in6.6 mm
03:30 AM 46.6°F8.1°C 40.4°F4.7°C 79% Calm Calm -- 29.85 in1010.8 mb - 0.02 in0.5 mm 0.26 in6.6 mm
03:00 AM 46.2°F7.9°C 40.7°F4.8°C 81% Calm Calm -- 29.84 in1010.5 mb - 0.02 in0.5 mm 0.26 in6.6 mm
02:30 AM 46.2°F7.9°C 42.0°F5.6°C 85% Calm Calm -- 29.82 in1009.8 mb - 0.00 in0.0 mm 0.24 in6.1 mm
02:00 AM 46.6°F8.1°C 42.6°F5.9°C 86% 11.5 mph N18.5 kmh N 11.5 mph18.5 kmh 29.81 in1009.5 mb - 0.02 in0.5 mm 0.24 in6.1 mm
01:30 AM 47.5°F8.6°C 44.1°F6.7°C 88% Calm Calm 4.6 mph7.4 kmh 29.77 in1008.1 mb - 0.04 in1.0 mm 0.22 in5.6 mm
01:00 AM 48.7°F9.3°C 45.6°F7.6°C 89% 3.5 mph NW5.6 kmh NW 3.5 mph5.6 kmh 29.77 in1008.1 mb - 0.10 in2.5 mm 0.18 in4.6 mm
12:30 AM 50.5°F10.3°C 47.7°F8.7°C 90% Calm Calm -- 29.76 in1007.8 mb - 0.08 in2.0 mm 0.08 in2.0 mm
12:00 AM 51.5°F10.8°C 49.0°F9.4°C 91% 3.5 mph N5.6 kmh N 3.5 mph5.6 kmh 29.73 in1006.8 mb - 0.02 in0.5 mm 0.02 in0.5 mm